sensor_id;sensor_type;location;lat;lon;timestamp;P1;durP1;ratioP1;P2;durP2;ratioP2
177;SDS011;77;48.792;9.032;2023-03-03T00:01:38;59.40;;;30.33;;
177;SDS011;77;48.792;9.032;2023-03-03T00:04:04;57.33;;;30.03;;
177;SDS011;77;48.792;9.032;2023-03-03T00:06:29;59.73;;;31.20;;
177;SDS011;77;48.792;9.032;2023-03-03T00:08:54;57.10;;;29.97;;
177;SDS011;77;48.792;9.032;2023-03-03T00:11:19;57.93;;;29.70;;
177;SDS011;77;48.792;9.032;2023-03-03T00:13:45;54.50;;;28.77;;
177;SDS011;77;48.792;9.032;2023-03-03T00:16:14;58.87;;;30.80;;
177;SDS011;77;48.792;9.032;2023-03-03T00:18:40;54.30;;;28.93;;
177;SDS011;77;48.792;9.032;2023-03-03T00:21:10;62.50;;;30.33;;
177;SDS011;77;48.792;9.032;2023-03-03T00:23:39;55.47;;;29.77;;
177;SDS011;77;48.792;9.032;2023-03-03T00:26:06;62.00;;;31.07;;
177;SDS011;77;48.792;9.032;2023-03-03T00:28:42;58.47;;;29.33;;
177;SDS011;77;48.792;9.032;2023-03-03T00:31:14;60.60;;;31.60;;
177;SDS011;77;48.792;9.032;2023-03-03T00:33:42;76.63;;;34.93;;
177;SDS011;77;48.792;9.032;2023-03-03T00:36:19;58.97;;;31.03;;
177;SDS011;77;48.792;9.032;2023-03-03T00:38:45;63.50;;;31.70;;
177;SDS011;77;48.792;9.032;2023-03-03T00:41:14;66.23;;;32.33;;
177;SDS011;77;48.792;9.032;2023-03-03T00:43:40;66.43;;;33.17;;
177;SDS011;77;48.792;9.032;2023-03-03T00:46:07;61.70;;;31.93;;
177;SDS011;77;48.792;9.032;2023-03-03T00:48:40;70.40;;;31.33;;
177;SDS011;77;48.792;9.032;2023-03-03T00:51:08;61.20;;;31.57;;
177;SDS011;77;48.792;9.032;2023-03-03T00:53:35;66.70;;;32.27;;
177;SDS011;77;48.792;9.032;2023-03-03T00:56:00;63.33;;;32.63;;
177;SDS011;77;48.792;9.032;2023-03-03T00:58:26;63.97;;;32.53;;
177;SDS011;77;48.792;9.032;2023-03-03T01:00:51;65.23;;;32.23;;
177;SDS011;77;48.792;9.032;2023-03-03T01:03:18;63.63;;;33.00;;
177;SDS011;77;48.792;9.032;2023-03-03T01:05:45;62.70;;;31.57;;
177;SDS011;77;48.792;9.032;2023-03-03T01:08:10;65.57;;;33.40;;
177;SDS011;77;48.792;9.032;2023-03-03T01:10:36;63.53;;;30.97;;
177;SDS011;77;48.792;9.032;2023-03-03T01:13:03;63.17;;;32.57;;
177;SDS011;77;48.792;9.032;2023-03-03T01:15:28;61.83;;;31.77;;
177;SDS011;77;48.792;9.032;2023-03-03T01:17:53;63.07;;;32.03;;
177;SDS011;77;48.792;9.032;2023-03-03T01:20:19;66.50;;;33.10;;
177;SDS011;77;48.792;9.032;2023-03-03T01:22:45;65.80;;;31.70;;
177;SDS011;77;48.792;9.032;2023-03-03T01:25:10;62.80;;;32.10;;
177;SDS011;77;48.792;9.032;2023-03-03T01:27:36;60.30;;;30.67;;
177;SDS011;77;48.792;9.032;2023-03-03T01:30:01;65.43;;;31.63;;
177;SDS011;77;48.792;9.032;2023-03-03T01:32:27;70.10;;;34.33;;
177;SDS011;77;48.792;9.032;2023-03-03T01:34:53;62.30;;;32.13;;
177;SDS011;77;48.792;9.032;2023-03-03T01:37:18;57.07;;;31.10;;
177;SDS011;77;48.792;9.032;2023-03-03T01:39:47;60.40;;;30.30;;
177;SDS011;77;48.792;9.032;2023-03-03T01:42:13;62.77;;;31.80;;
177;SDS011;77;48.792;9.032;2023-03-03T01:44:38;57.80;;;30.30;;
177;SDS011;77;48.792;9.032;2023-03-03T01:47:04;65.70;;;32.70;;
177;SDS011;77;48.792;9.032;2023-03-03T01:49:32;61.20;;;32.30;;
177;SDS011;77;48.792;9.032;2023-03-03T01:51:59;63.33;;;32.80;;
177;SDS011;77;48.792;9.032;2023-03-03T01:54:26;62.33;;;31.70;;
177;SDS011;77;48.792;9.032;2023-03-03T01:56:54;66.03;;;32.03;;
177;SDS011;77;48.792;9.032;2023-03-03T01:59:21;60.63;;;31.70;;
177;SDS011;77;48.792;9.032;2023-03-03T02:01:47;56.20;;;31.20;;
177;SDS011;77;48.792;9.032;2023-03-03T02:04:13;59.67;;;31.47;;
177;SDS011;77;48.792;9.032;2023-03-03T02:06:39;64.70;;;32.23;;
177;SDS011;77;48.792;9.032;2023-03-03T02:09:06;64.63;;;31.50;;
177;SDS011;77;48.792;9.032;2023-03-03T02:11:35;65.30;;;33.20;;
177;SDS011;77;48.792;9.032;2023-03-03T02:14:02;66.87;;;32.60;;
177;SDS011;77;48.792;9.032;2023-03-03T02:16:27;58.40;;;31.30;;
177;SDS011;77;48.792;9.032;2023-03-03T02:18:53;58.10;;;30.23;;
177;SDS011;77;48.792;9.032;2023-03-03T02:21:18;59.10;;;30.80;;
177;SDS011;77;48.792;9.032;2023-03-03T02:23:46;65.50;;;31.00;;
177;SDS011;77;48.792;9.032;2023-03-03T02:26:15;61.77;;;31.57;;
177;SDS011;77;48.792;9.032;2023-03-03T02:28:41;66.47;;;33.50;;
177;SDS011;77;48.792;9.032;2023-03-03T02:31:07;60.73;;;31.03;;
177;SDS011;77;48.792;9.032;2023-03-03T02:33:33;62.13;;;31.00;;
177;SDS011;77;48.792;9.032;2023-03-03T02:35:58;68.40;;;32.07;;
177;SDS011;77;48.792;9.032;2023-03-03T02:38:24;61.23;;;31.60;;
177;SDS011;77;48.792;9.032;2023-03-03T02:40:53;66.43;;;32.23;;
177;SDS011;77;48.792;9.032;2023-03-03T02:43:22;69.20;;;32.93;;
177;SDS011;77;48.792;9.032;2023-03-03T02:45:49;67.20;;;33.13;;
177;SDS011;77;48.792;9.032;2023-03-03T02:48:14;64.17;;;32.30;;
177;SDS011;77;48.792;9.032;2023-03-03T02:50:39;72.57;;;34.97;;
177;SDS011;77;48.792;9.032;2023-03-03T02:53:04;65.20;;;33.70;;
177;SDS011;77;48.792;9.032;2023-03-03T02:55:29;69.40;;;31.57;;
177;SDS011;77;48.792;9.032;2023-03-03T02:57:55;62.40;;;31.90;;
177;SDS011;77;48.792;9.032;2023-03-03T03:00:21;62.00;;;31.77;;
177;SDS011;77;48.792;9.032;2023-03-03T03:02:46;64.53;;;33.30;;
177;SDS011;77;48.792;9.032;2023-03-03T03:05:12;63.30;;;31.83;;
177;SDS011;77;48.792;9.032;2023-03-03T03:07:37;61.43;;;31.00;;
177;SDS011;77;48.792;9.032;2023-03-03T03:10:02;53.20;;;28.37;;
177;SDS011;77;48.792;9.032;2023-03-03T03:12:28;58.27;;;29.60;;
177;SDS011;77;48.792;9.032;2023-03-03T03:14:53;63.37;;;31.77;;
177;SDS011;77;48.792;9.032;2023-03-03T03:17:19;60.30;;;31.50;;
177;SDS011;77;48.792;9.032;2023-03-03T03:19:45;58.53;;;30.70;;
177;SDS011;77;48.792;9.032;2023-03-03T03:22:10;63.97;;;30.10;;
177;SDS011;77;48.792;9.032;2023-03-03T03:24:35;58.87;;;30.77;;
177;SDS011;77;48.792;9.032;2023-03-03T03:27:00;59.23;;;29.23;;
177;SDS011;77;48.792;9.032;2023-03-03T03:29:26;59.03;;;30.67;;
177;SDS011;77;48.792;9.032;2023-03-03T03:31:51;62.87;;;31.10;;
177;SDS011;77;48.792;9.032;2023-03-03T03:34:17;58.63;;;30.27;;
177;SDS011;77;48.792;9.032;2023-03-03T03:36:43;65.10;;;31.67;;
177;SDS011;77;48.792;9.032;2023-03-03T03:39:08;60.33;;;30.00;;
177;SDS011;77;48.792;9.032;2023-03-03T03:41:33;57.40;;;29.57;;
177;SDS011;77;48.792;9.032;2023-03-03T03:43:58;57.10;;;29.30;;
177;SDS011;77;48.792;9.032;2023-03-03T03:46:23;59.13;;;30.00;;
177;SDS011;77;48.792;9.032;2023-03-03T03:48:49;56.57;;;29.70;;
177;SDS011;77;48.792;9.032;2023-03-03T03:51:15;57.07;;;29.97;;
177;SDS011;77;48.792;9.032;2023-03-03T03:53:41;58.20;;;31.20;;
177;SDS011;77;48.792;9.032;2023-03-03T03:56:06;65.17;;;32.13;;
177;SDS011;77;48.792;9.032;2023-03-03T03:58:31;59.17;;;30.47;;
177;SDS011;77;48.792;9.032;2023-03-03T04:01:00;59.40;;;29.63;;
177;SDS011;77;48.792;9.032;2023-03-03T04:03:26;61.53;;;30.80;;
177;SDS011;77;48.792;9.032;2023-03-03T04:05:51;62.27;;;29.90;;
177;SDS011;77;48.792;9.032;2023-03-03T04:08:18;62.60;;;29.70;;
177;SDS011;77;48.792;9.032;2023-03-03T04:10:43;63.10;;;32.30;;
177;SDS011;77;48.792;9.032;2023-03-03T04:13:08;61.50;;;30.43;;
177;SDS011;77;48.792;9.032;2023-03-03T04:15:33;62.70;;;32.00;;
177;SDS011;77;48.792;9.032;2023-03-03T04:17:58;63.13;;;32.37;;
177;SDS011;77;48.792;9.032;2023-03-03T04:20:24;63.20;;;30.60;;
177;SDS011;77;48.792;9.032;2023-03-03T04:22:49;60.50;;;30.70;;
177;SDS011;77;48.792;9.032;2023-03-03T04:25:16;58.20;;;30.27;;
177;SDS011;77;48.792;9.032;2023-03-03T04:27:41;61.77;;;29.80;;
177;SDS011;77;48.792;9.032;2023-03-03T04:30:07;57.17;;;31.10;;
177;SDS011;77;48.792;9.032;2023-03-03T04:32:32;59.33;;;30.30;;
177;SDS011;77;48.792;9.032;2023-03-03T04:34:57;58.70;;;30.93;;
177;SDS011;77;48.792;9.032;2023-03-03T04:37:22;62.17;;;31.10;;
177;SDS011;77;48.792;9.032;2023-03-03T04:39:48;55.87;;;30.30;;
177;SDS011;77;48.792;9.032;2023-03-03T04:42:14;59.13;;;30.60;;
177;SDS011;77;48.792;9.032;2023-03-03T04:44:39;59.20;;;30.30;;
177;SDS011;77;48.792;9.032;2023-03-03T04:47:05;65.63;;;31.30;;
177;SDS011;77;48.792;9.032;2023-03-03T04:49:30;61.77;;;30.93;;
177;SDS011;77;48.792;9.032;2023-03-03T04:51:55;64.40;;;31.77;;
177;SDS011;77;48.792;9.032;2023-03-03T04:54:20;74.43;;;33.63;;
177;SDS011;77;48.792;9.032;2023-03-03T04:56:45;62.03;;;32.27;;
177;SDS011;77;48.792;9.032;2023-03-03T04:59:12;68.20;;;34.40;;
177;SDS011;77;48.792;9.032;2023-03-03T05:01:37;66.07;;;33.07;;
177;SDS011;77;48.792;9.032;2023-03-03T05:04:02;64.70;;;32.90;;
177;SDS011;77;48.792;9.032;2023-03-03T05:06:28;62.63;;;32.10;;
177;SDS011;77;48.792;9.032;2023-03-03T05:08:53;58.97;;;31.10;;
177;SDS011;77;48.792;9.032;2023-03-03T05:11:18;60.43;;;32.03;;
177;SDS011;77;48.792;9.032;2023-03-03T05:13:43;61.53;;;32.87;;
177;SDS011;77;48.792;9.032;2023-03-03T05:16:10;72.13;;;34.03;;
177;SDS011;77;48.792;9.032;2023-03-03T05:18:35;66.50;;;32.87;;
177;SDS011;77;48.792;9.032;2023-03-03T05:21:00;65.07;;;34.17;;
177;SDS011;77;48.792;9.032;2023-03-03T05:23:26;66.87;;;33.67;;
177;SDS011;77;48.792;9.032;2023-03-03T05:25:51;70.90;;;35.80;;
177;SDS011;77;48.792;9.032;2023-03-03T05:28:16;73.33;;;35.97;;
177;SDS011;77;48.792;9.032;2023-03-03T05:30:42;69.23;;;34.83;;
177;SDS011;77;48.792;9.032;2023-03-03T05:33:09;69.37;;;33.70;;
177;SDS011;77;48.792;9.032;2023-03-03T05:35:36;68.90;;;34.90;;
177;SDS011;77;48.792;9.032;2023-03-03T05:38:01;68.73;;;34.00;;
177;SDS011;77;48.792;9.032;2023-03-03T05:40:26;67.43;;;34.43;;
177;SDS011;77;48.792;9.032;2023-03-03T05:42:52;61.40;;;31.67;;
177;SDS011;77;48.792;9.032;2023-03-03T05:45:17;62.40;;;33.03;;
177;SDS011;77;48.792;9.032;2023-03-03T05:47:42;67.83;;;34.03;;
177;SDS011;77;48.792;9.032;2023-03-03T05:50:09;68.20;;;33.97;;
177;SDS011;77;48.792;9.032;2023-03-03T05:52:35;67.33;;;34.17;;
177;SDS011;77;48.792;9.032;2023-03-03T05:55:00;67.03;;;33.93;;
177;SDS011;77;48.792;9.032;2023-03-03T05:57:25;64.20;;;32.70;;
177;SDS011;77;48.792;9.032;2023-03-03T05:59:50;70.50;;;35.33;;
177;SDS011;77;48.792;9.032;2023-03-03T06:02:15;66.40;;;34.13;;
177;SDS011;77;48.792;9.032;2023-03-03T06:04:41;67.70;;;35.20;;
177;SDS011;77;48.792;9.032;2023-03-03T06:07:07;66.40;;;34.53;;
177;SDS011;77;48.792;9.032;2023-03-03T06:09:32;68.77;;;33.80;;
177;SDS011;77;48.792;9.032;2023-03-03T06:11:58;70.20;;;35.80;;
177;SDS011;77;48.792;9.032;2023-03-03T06:14:23;70.60;;;34.10;;
177;SDS011;77;48.792;9.032;2023-03-03T06:16:49;65.10;;;33.33;;
177;SDS011;77;48.792;9.032;2023-03-03T06:19:14;71.90;;;35.23;;
177;SDS011;77;48.792;9.032;2023-03-03T06:21:39;69.57;;;35.60;;
177;SDS011;77;48.792;9.032;2023-03-03T06:24:06;69.97;;;36.10;;
177;SDS011;77;48.792;9.032;2023-03-03T06:26:32;65.00;;;33.07;;
177;SDS011;77;48.792;9.032;2023-03-03T06:28:57;67.60;;;36.00;;
177;SDS011;77;48.792;9.032;2023-03-03T06:31:22;76.67;;;34.70;;
177;SDS011;77;48.792;9.032;2023-03-03T06:33:48;68.17;;;33.50;;
177;SDS011;77;48.792;9.032;2023-03-03T06:36:13;72.80;;;35.13;;
177;SDS011;77;48.792;9.032;2023-03-03T06:38:38;71.33;;;35.40;;
177;SDS011;77;48.792;9.032;2023-03-03T06:41:05;67.77;;;33.37;;
177;SDS011;77;48.792;9.032;2023-03-03T06:43:30;66.63;;;35.13;;
177;SDS011;77;48.792;9.032;2023-03-03T06:45:56;65.33;;;34.50;;
177;SDS011;77;48.792;9.032;2023-03-03T06:48:21;68.83;;;33.83;;
177;SDS011;77;48.792;9.032;2023-03-03T06:50:46;65.40;;;35.13;;
177;SDS011;77;48.792;9.032;2023-03-03T06:53:12;74.47;;;35.87;;
177;SDS011;77;48.792;9.032;2023-03-03T06:55:37;66.73;;;34.60;;
177;SDS011;77;48.792;9.032;2023-03-03T06:58:07;71.63;;;34.63;;
177;SDS011;77;48.792;9.032;2023-03-03T07:00:33;74.83;;;35.77;;
177;SDS011;77;48.792;9.032;2023-03-03T07:02:59;68.30;;;34.60;;
177;SDS011;77;48.792;9.032;2023-03-03T07:05:26;68.23;;;34.37;;
177;SDS011;77;48.792;9.032;2023-03-03T07:07:51;71.07;;;35.07;;
177;SDS011;77;48.792;9.032;2023-03-03T07:10:19;70.47;;;35.20;;
177;SDS011;77;48.792;9.032;2023-03-03T07:12:46;76.63;;;36.80;;
177;SDS011;77;48.792;9.032;2023-03-03T07:15:14;72.47;;;35.87;;
177;SDS011;77;48.792;9.032;2023-03-03T07:17:41;71.60;;;35.43;;
177;SDS011;77;48.792;9.032;2023-03-03T07:20:10;68.40;;;33.40;;
177;SDS011;77;48.792;9.032;2023-03-03T07:22:39;67.43;;;33.83;;
177;SDS011;77;48.792;9.032;2023-03-03T07:25:05;67.20;;;33.70;;
177;SDS011;77;48.792;9.032;2023-03-03T07:27:42;63.73;;;33.03;;
177;SDS011;77;48.792;9.032;2023-03-03T07:30:23;67.93;;;34.33;;
177;SDS011;77;48.792;9.032;2023-03-03T07:32:48;64.33;;;32.83;;
177;SDS011;77;48.792;9.032;2023-03-03T07:35:22;65.73;;;35.23;;
177;SDS011;77;48.792;9.032;2023-03-03T07:37:50;74.00;;;37.40;;
177;SDS011;77;48.792;9.032;2023-03-03T07:42:56;76.10;;;35.60;;
177;SDS011;77;48.792;9.032;2023-03-03T07:45:24;70.43;;;34.43;;
177;SDS011;77;48.792;9.032;2023-03-03T07:47:50;66.23;;;32.67;;
177;SDS011;77;48.792;9.032;2023-03-03T07:50:17;62.83;;;31.80;;
177;SDS011;77;48.792;9.032;2023-03-03T07:52:44;62.80;;;32.53;;
177;SDS011;77;48.792;9.032;2023-03-03T07:55:22;64.00;;;32.43;;
177;SDS011;77;48.792;9.032;2023-03-03T07:57:49;61.33;;;31.57;;
177;SDS011;77;48.792;9.032;2023-03-03T08:03:16;60.87;;;31.03;;
177;SDS011;77;48.792;9.032;2023-03-03T08:05:42;62.00;;;33.20;;
177;SDS011;77;48.792;9.032;2023-03-03T08:08:12;63.43;;;31.60;;
177;SDS011;77;48.792;9.032;2023-03-03T08:10:39;59.37;;;30.47;;
177;SDS011;77;48.792;9.032;2023-03-03T08:13:08;62.77;;;29.20;;
177;SDS011;77;48.792;9.032;2023-03-03T08:15:37;55.20;;;27.73;;
177;SDS011;77;48.792;9.032;2023-03-03T08:18:08;55.83;;;28.00;;
177;SDS011;77;48.792;9.032;2023-03-03T08:20:44;53.00;;;27.53;;
177;SDS011;77;48.792;9.032;2023-03-03T08:23:10;52.20;;;27.07;;
177;SDS011;77;48.792;9.032;2023-03-03T08:25:35;49.73;;;26.00;;
177;SDS011;77;48.792;9.032;2023-03-03T08:28:00;50.13;;;27.10;;
177;SDS011;77;48.792;9.032;2023-03-03T08:30:33;46.83;;;26.13;;
177;SDS011;77;48.792;9.032;2023-03-03T08:32:58;48.77;;;26.43;;
177;SDS011;77;48.792;9.032;2023-03-03T08:35:23;44.27;;;24.83;;
177;SDS011;77;48.792;9.032;2023-03-03T08:37:50;47.13;;;25.97;;
177;SDS011;77;48.792;9.032;2023-03-03T08:40:16;45.17;;;24.73;;
177;SDS011;77;48.792;9.032;2023-03-03T08:42:41;52.50;;;27.53;;
177;SDS011;77;48.792;9.032;2023-03-03T08:45:06;52.47;;;26.80;;
177;SDS011;77;48.792;9.032;2023-03-03T08:47:32;50.70;;;25.43;;
177;SDS011;77;48.792;9.032;2023-03-03T08:49:57;46.93;;;26.30;;
177;SDS011;77;48.792;9.032;2023-03-03T08:52:23;46.30;;;25.77;;
177;SDS011;77;48.792;9.032;2023-03-03T08:54:49;47.10;;;25.40;;
177;SDS011;77;48.792;9.032;2023-03-03T08:57:15;52.97;;;26.53;;
177;SDS011;77;48.792;9.032;2023-03-03T08:59:40;44.03;;;25.17;;
177;SDS011;77;48.792;9.032;2023-03-03T09:02:05;44.00;;;24.73;;
177;SDS011;77;48.792;9.032;2023-03-03T09:04:31;43.50;;;25.47;;
177;SDS011;77;48.792;9.032;2023-03-03T09:06:56;43.13;;;25.00;;
177;SDS011;77;48.792;9.032;2023-03-03T09:09:21;43.03;;;24.20;;
177;SDS011;77;48.792;9.032;2023-03-03T09:11:48;48.57;;;25.60;;
177;SDS011;77;48.792;9.032;2023-03-03T09:14:14;45.77;;;26.03;;
177;SDS011;77;48.792;9.032;2023-03-03T09:16:40;46.87;;;25.60;;
177;SDS011;77;48.792;9.032;2023-03-03T09:19:15;48.83;;;26.70;;
177;SDS011;77;48.792;9.032;2023-03-03T09:21:40;48.73;;;26.67;;
177;SDS011;77;48.792;9.032;2023-03-03T09:24:09;49.33;;;26.37;;
177;SDS011;77;48.792;9.032;2023-03-03T09:26:45;46.23;;;27.53;;
177;SDS011;77;48.792;9.032;2023-03-03T09:31:53;46.30;;;26.10;;
177;SDS011;77;48.792;9.032;2023-03-03T09:34:19;48.63;;;27.47;;
177;SDS011;77;48.792;9.032;2023-03-03T09:36:45;47.83;;;26.43;;
177;SDS011;77;48.792;9.032;2023-03-03T09:39:12;49.17;;;27.53;;
177;SDS011;77;48.792;9.032;2023-03-03T09:44:32;49.07;;;28.33;;
177;SDS011;77;48.792;9.032;2023-03-03T09:47:07;52.27;;;28.40;;
177;SDS011;77;48.792;9.032;2023-03-03T09:49:38;48.30;;;26.80;;
177;SDS011;77;48.792;9.032;2023-03-03T09:52:16;49.17;;;27.17;;
177;SDS011;77;48.792;9.032;2023-03-03T09:54:49;45.33;;;26.23;;
177;SDS011;77;48.792;9.032;2023-03-03T09:57:17;46.73;;;27.53;;
177;SDS011;77;48.792;9.032;2023-03-03T09:59:58;46.30;;;26.77;;
177;SDS011;77;48.792;9.032;2023-03-03T10:02:36;50.87;;;27.80;;
177;SDS011;77;48.792;9.032;2023-03-03T10:07:51;47.90;;;28.27;;
177;SDS011;77;48.792;9.032;2023-03-03T10:10:32;49.60;;;30.30;;
177;SDS011;77;48.792;9.032;2023-03-03T10:13:06;50.93;;;29.33;;
177;SDS011;77;48.792;9.032;2023-03-03T10:15:38;52.20;;;29.97;;
177;SDS011;77;48.792;9.032;2023-03-03T10:18:14;52.57;;;29.60;;
177;SDS011;77;48.792;9.032;2023-03-03T10:20:44;48.60;;;29.90;;
177;SDS011;77;48.792;9.032;2023-03-03T10:23:14;52.63;;;29.40;;
177;SDS011;77;48.792;9.032;2023-03-03T10:25:44;47.50;;;27.97;;
177;SDS011;77;48.792;9.032;2023-03-03T10:28:18;48.90;;;28.00;;
177;SDS011;77;48.792;9.032;2023-03-03T10:30:46;51.80;;;28.70;;
177;SDS011;77;48.792;9.032;2023-03-03T10:33:19;51.23;;;28.60;;
177;SDS011;77;48.792;9.032;2023-03-03T10:35:57;52.17;;;28.80;;
177;SDS011;77;48.792;9.032;2023-03-03T10:38:31;47.27;;;28.50;;
177;SDS011;77;48.792;9.032;2023-03-03T10:41:09;55.20;;;29.30;;
177;SDS011;77;48.792;9.032;2023-03-03T10:43:40;48.53;;;28.43;;
177;SDS011;77;48.792;9.032;2023-03-03T10:48:54;53.20;;;30.07;;
177;SDS011;77;48.792;9.032;2023-03-03T10:51:25;50.73;;;28.13;;
177;SDS011;77;48.792;9.032;2023-03-03T10:53:55;47.63;;;28.10;;
177;SDS011;77;48.792;9.032;2023-03-03T10:56:26;49.40;;;29.73;;
177;SDS011;77;48.792;9.032;2023-03-03T10:58:59;45.27;;;28.60;;
177;SDS011;77;48.792;9.032;2023-03-03T11:01:29;47.57;;;27.83;;
177;SDS011;77;48.792;9.032;2023-03-03T11:04:06;52.60;;;30.50;;
177;SDS011;77;48.792;9.032;2023-03-03T11:06:37;49.60;;;28.13;;
177;SDS011;77;48.792;9.032;2023-03-03T11:09:06;47.40;;;28.50;;
177;SDS011;77;48.792;9.032;2023-03-03T11:11:35;54.57;;;29.43;;
177;SDS011;77;48.792;9.032;2023-03-03T11:14:06;51.13;;;29.43;;
177;SDS011;77;48.792;9.032;2023-03-03T11:16:36;48.47;;;29.57;;
177;SDS011;77;48.792;9.032;2023-03-03T11:19:08;51.87;;;28.50;;
177;SDS011;77;48.792;9.032;2023-03-03T11:21:43;48.13;;;27.93;;
177;SDS011;77;48.792;9.032;2023-03-03T11:24:15;47.93;;;28.10;;
177;SDS011;77;48.792;9.032;2023-03-03T11:26:55;45.77;;;28.03;;
177;SDS011;77;48.792;9.032;2023-03-03T11:29:31;48.67;;;28.53;;
177;SDS011;77;48.792;9.032;2023-03-03T11:32:00;48.33;;;28.67;;
177;SDS011;77;48.792;9.032;2023-03-03T11:34:35;45.40;;;27.70;;
177;SDS011;77;48.792;9.032;2023-03-03T11:37:03;54.03;;;27.70;;
177;SDS011;77;48.792;9.032;2023-03-03T11:39:30;45.60;;;28.40;;
177;SDS011;77;48.792;9.032;2023-03-03T11:41:57;44.63;;;26.90;;
177;SDS011;77;48.792;9.032;2023-03-03T11:44:26;49.50;;;27.40;;
177;SDS011;77;48.792;9.032;2023-03-03T11:46:55;43.27;;;27.23;;
177;SDS011;77;48.792;9.032;2023-03-03T11:49:23;45.53;;;26.50;;
177;SDS011;77;48.792;9.032;2023-03-03T11:51:54;44.00;;;25.80;;
177;SDS011;77;48.792;9.032;2023-03-03T11:54:23;44.50;;;26.10;;
177;SDS011;77;48.792;9.032;2023-03-03T11:56:51;44.53;;;25.50;;
177;SDS011;77;48.792;9.032;2023-03-03T11:59:22;41.43;;;25.00;;
177;SDS011;77;48.792;9.032;2023-03-03T12:01:51;45.30;;;25.63;;
177;SDS011;77;48.792;9.032;2023-03-03T12:04:18;40.13;;;24.60;;
177;SDS011;77;48.792;9.032;2023-03-03T12:06:49;44.50;;;25.30;;
177;SDS011;77;48.792;9.032;2023-03-03T12:09:22;43.77;;;25.93;;
177;SDS011;77;48.792;9.032;2023-03-03T12:11:50;44.70;;;26.40;;
177;SDS011;77;48.792;9.032;2023-03-03T12:14:19;40.07;;;24.73;;
177;SDS011;77;48.792;9.032;2023-03-03T12:16:50;42.50;;;25.47;;
177;SDS011;77;48.792;9.032;2023-03-03T12:19:21;41.37;;;24.77;;
177;SDS011;77;48.792;9.032;2023-03-03T12:22:02;41.27;;;25.47;;
177;SDS011;77;48.792;9.032;2023-03-03T12:24:35;41.77;;;24.87;;
177;SDS011;77;48.792;9.032;2023-03-03T12:27:05;40.20;;;24.73;;
177;SDS011;77;48.792;9.032;2023-03-03T12:29:33;41.43;;;25.40;;
177;SDS011;77;48.792;9.032;2023-03-03T12:32:06;40.40;;;24.90;;
177;SDS011;77;48.792;9.032;2023-03-03T12:34:40;46.03;;;25.93;;
177;SDS011;77;48.792;9.032;2023-03-03T12:37:09;41.33;;;25.73;;
177;SDS011;77;48.792;9.032;2023-03-03T12:39:51;46.37;;;25.77;;
177;SDS011;77;48.792;9.032;2023-03-03T12:42:29;41.97;;;24.83;;
177;SDS011;77;48.792;9.032;2023-03-03T12:45:06;41.90;;;25.13;;
177;SDS011;77;48.792;9.032;2023-03-03T12:47:35;42.10;;;24.90;;
177;SDS011;77;48.792;9.032;2023-03-03T12:50:18;41.93;;;25.70;;
177;SDS011;77;48.792;9.032;2023-03-03T12:55:34;39.97;;;24.70;;
177;SDS011;77;48.792;9.032;2023-03-03T12:58:01;39.67;;;25.77;;
177;SDS011;77;48.792;9.032;2023-03-03T13:00:37;46.90;;;26.40;;
177;SDS011;77;48.792;9.032;2023-03-03T13:33:43;46.33;;;26.57;;
177;SDS011;77;48.792;9.032;2023-03-03T13:36:12;48.13;;;27.30;;
177;SDS011;77;48.792;9.032;2023-03-03T13:38:39;46.23;;;27.30;;
177;SDS011;77;48.792;9.032;2023-03-03T13:41:06;48.90;;;26.80;;
177;SDS011;77;48.792;9.032;2023-03-03T13:43:35;48.13;;;27.87;;
177;SDS011;77;48.792;9.032;2023-03-03T13:46:07;50.20;;;28.17;;
177;SDS011;77;48.792;9.032;2023-03-03T13:48:37;44.70;;;26.97;;
177;SDS011;77;48.792;9.032;2023-03-03T13:51:08;44.40;;;26.43;;
177;SDS011;77;48.792;9.032;2023-03-03T13:53:41;41.13;;;25.53;;
177;SDS011;77;48.792;9.032;2023-03-03T13:56:16;46.37;;;27.90;;
177;SDS011;77;48.792;9.032;2023-03-03T13:58:45;44.50;;;26.63;;
177;SDS011;77;48.792;9.032;2023-03-03T14:01:13;42.77;;;26.93;;
177;SDS011;77;48.792;9.032;2023-03-03T14:03:52;46.27;;;26.90;;
177;SDS011;77;48.792;9.032;2023-03-03T14:06:21;44.40;;;26.90;;
177;SDS011;77;48.792;9.032;2023-03-03T14:08:50;40.40;;;26.03;;
177;SDS011;77;48.792;9.032;2023-03-03T14:11:18;46.20;;;27.80;;
177;SDS011;77;48.792;9.032;2023-03-03T14:13:48;47.37;;;27.23;;
177;SDS011;77;48.792;9.032;2023-03-03T14:16:18;41.90;;;25.93;;
177;SDS011;77;48.792;9.032;2023-03-03T14:18:45;42.50;;;27.37;;
177;SDS011;77;48.792;9.032;2023-03-03T14:21:18;43.73;;;27.00;;
177;SDS011;77;48.792;9.032;2023-03-03T14:23:49;49.10;;;28.27;;
177;SDS011;77;48.792;9.032;2023-03-03T14:26:15;45.77;;;27.77;;
177;SDS011;77;48.792;9.032;2023-03-03T14:28:41;46.97;;;27.97;;
177;SDS011;77;48.792;9.032;2023-03-03T14:33:58;44.67;;;28.30;;
177;SDS011;77;48.792;9.032;2023-03-03T14:36:25;41.67;;;27.30;;
177;SDS011;77;48.792;9.032;2023-03-03T14:38:52;42.03;;;28.00;;
177;SDS011;77;48.792;9.032;2023-03-03T14:41:19;44.17;;;26.30;;
177;SDS011;77;48.792;9.032;2023-03-03T14:43:45;39.97;;;25.43;;
177;SDS011;77;48.792;9.032;2023-03-03T14:46:21;39.63;;;26.03;;
177;SDS011;77;48.792;9.032;2023-03-03T14:48:54;42.97;;;27.53;;
177;SDS011;77;48.792;9.032;2023-03-03T14:51:23;45.07;;;27.80;;
177;SDS011;77;48.792;9.032;2023-03-03T14:53:49;40.20;;;26.40;;
177;SDS011;77;48.792;9.032;2023-03-03T14:56:20;41.57;;;26.50;;
177;SDS011;77;48.792;9.032;2023-03-03T14:58:46;45.30;;;27.70;;
177;SDS011;77;48.792;9.032;2023-03-03T15:01:15;44.97;;;27.87;;
177;SDS011;77;48.792;9.032;2023-03-03T15:03:57;46.07;;;28.87;;
177;SDS011;77;48.792;9.032;2023-03-03T15:06:29;44.60;;;28.57;;
177;SDS011;77;48.792;9.032;2023-03-03T15:09:00;45.30;;;29.17;;
177;SDS011;77;48.792;9.032;2023-03-03T15:11:44;47.70;;;28.37;;
177;SDS011;77;48.792;9.032;2023-03-03T15:14:11;49.03;;;28.20;;
177;SDS011;77;48.792;9.032;2023-03-03T15:16:39;43.80;;;27.10;;
177;SDS011;77;48.792;9.032;2023-03-03T15:19:31;53.40;;;29.53;;
177;SDS011;77;48.792;9.032;2023-03-03T15:22:03;58.40;;;27.83;;
177;SDS011;77;48.792;9.032;2023-03-03T15:24:36;48.07;;;28.20;;
177;SDS011;77;48.792;9.032;2023-03-03T15:29:47;49.50;;;28.07;;
177;SDS011;77;48.792;9.032;2023-03-03T15:32:17;60.23;;;27.87;;
177;SDS011;77;48.792;9.032;2023-03-03T15:34:50;47.23;;;27.47;;
177;SDS011;77;48.792;9.032;2023-03-03T15:40:08;47.90;;;27.53;;
177;SDS011;77;48.792;9.032;2023-03-03T15:42:41;44.77;;;27.20;;
177;SDS011;77;48.792;9.032;2023-03-03T15:45:12;46.17;;;27.40;;
177;SDS011;77;48.792;9.032;2023-03-03T15:47:48;47.97;;;28.17;;
177;SDS011;77;48.792;9.032;2023-03-03T15:50:20;46.63;;;29.10;;
177;SDS011;77;48.792;9.032;2023-03-03T15:52:53;44.90;;;28.50;;
177;SDS011;77;48.792;9.032;2023-03-03T15:55:29;48.87;;;28.87;;
177;SDS011;77;48.792;9.032;2023-03-03T15:57:59;50.20;;;28.33;;
177;SDS011;77;48.792;9.032;2023-03-03T16:00:36;45.43;;;26.80;;
177;SDS011;77;48.792;9.032;2023-03-03T16:03:04;46.53;;;27.97;;
177;SDS011;77;48.792;9.032;2023-03-03T16:05:32;46.47;;;27.30;;
177;SDS011;77;48.792;9.032;2023-03-03T16:07:59;46.67;;;29.07;;
177;SDS011;77;48.792;9.032;2023-03-03T16:10:30;51.07;;;29.40;;
177;SDS011;77;48.792;9.032;2023-03-03T16:12:58;53.63;;;28.80;;
177;SDS011;77;48.792;9.032;2023-03-03T16:15:30;54.10;;;28.40;;
177;SDS011;77;48.792;9.032;2023-03-03T16:18:00;49.17;;;28.73;;
177;SDS011;77;48.792;9.032;2023-03-03T16:20:27;51.00;;;28.17;;
177;SDS011;77;48.792;9.032;2023-03-03T16:25:37;45.17;;;26.90;;
177;SDS011;77;48.792;9.032;2023-03-03T16:28:07;51.13;;;27.87;;
177;SDS011;77;48.792;9.032;2023-03-03T16:30:35;48.07;;;29.23;;
177;SDS011;77;48.792;9.032;2023-03-03T16:33:10;52.10;;;28.00;;
177;SDS011;77;48.792;9.032;2023-03-03T16:35:41;48.70;;;28.40;;
177;SDS011;77;48.792;9.032;2023-03-03T16:38:08;49.90;;;27.77;;